Time,TemperatureF,DewpointF,PressureIn,WindDirection,WindDirectionDegrees,WindSpeedMPH,WindSpeedGustMPH,Humidity,HourlyPrecipIn,Conditions,Clouds,dailyrainin,SolarRadiationWatts/m^2,SoftwareType,DateUTC
2013-02-13 00:04:00,11.2,2.4,30.33,SW,218,6.0,7.0,67,0.00,,,0.00,0,Wunderground v.1.15,2013-02-13 07:04:00,
2013-02-13 00:09:00,11.1,2.3,30.33,SW,218,6.0,7.0,67,0.00,,,0.00,0,Wunderground v.1.15,2013-02-13 07:09:00,
2013-02-13 00:16:00,10.7,2.2,30.33,SW,218,6.0,6.0,68,0.00,,,0.00,0,Wunderground v.1.15,2013-02-13 07:16:00,
2013-02-13 00:23:00,10.5,2.0,30.33,SW,218,6.0,6.0,68,0.00,,,0.00,0,Wunderground v.1.15,2013-02-13 07:23:00,
2013-02-13 00:28:00,10.5,2.0,30.33,SW,218,5.0,6.0,68,0.00,,,0.00,0,Wunderground v.1.15,2013-02-13 07:28:00,
2013-02-13 00:34:00,10.4,1.9,30.33,SW,218,4.0,5.0,68,0.00,,,0.00,0,Wunderground v.1.15,2013-02-13 07:34:00,
2013-02-13 00:40:00,10.4,1.9,30.33,SW,218,6.0,6.0,68,0.00,,,0.00,0,Wunderground v.1.15,2013-02-13 07:40:00,
2013-02-13 00:46:00,10.2,2.0,30.32,SW,218,7.0,7.0,69,0.00,,,0.00,0,Wunderground v.1.15,2013-02-13 07:46:00,
2013-02-13 00:53:00,10.2,2.0,30.32,SW,218,5.0,6.0,69,0.00,,,0.00,0,Wunderground v.1.15,2013-02-13 07:53:00,
2013-02-13 00:59:00,10.2,2.0,30.32,SW,218,5.0,6.0,69,0.00,,,0.00,0,Wunderground v.1.15,2013-02-13 07:59:00,
2013-02-13 01:04:00,10.2,2.0,30.33,SW,218,8.0,8.0,69,0.00,,,0.00,0,Wunderground v.1.15,2013-02-13 08:04:00,
2013-02-13 01:10:00,10.2,2.0,30.33,SW,218,7.0,8.0,69,0.00,,,0.00,0,Wunderground v.1.15,2013-02-13 08:10:00,
2013-02-13 01:16:00,10.4,2.5,30.33,SW,218,8.0,9.0,70,0.00,,,0.00,0,Wunderground v.1.15,2013-02-13 08:16:00,
2013-02-13 01:21:00,10.5,2.3,30.33,SW,218,5.0,8.0,69,0.00,,,0.00,0,Wunderground v.1.15,2013-02-13 08:21:00,
2013-02-13 01:27:00,10.7,2.5,30.33,SW,218,7.0,8.0,69,0.00,,,0.00,0,Wunderground v.1.15,2013-02-13 08:27:00,
2013-02-13 01:33:00,11.1,2.6,30.34,SW,218,7.0,8.0,68,0.00,,,0.00,0,Wunderground v.1.15,2013-02-13 08:33:00,
2013-02-13 01:39:00,11.1,2.3,30.34,SW,218,3.0,8.0,67,0.00,,,0.00,0,Wunderground v.1.15,2013-02-13 08:39:00,
2013-02-13 01:46:00,11.1,1.9,30.33,SW,218,6.0,9.0,66,0.00,,,0.00,0,Wunderground v.1.15,2013-02-13 08:46:00,
2013-02-13 01:51:00,11.1,1.9,30.33,SW,218,6.0,6.0,66,0.00,,,0.00,0,Wunderground v.1.15,2013-02-13 08:51:00,
2013-02-13 01:57:00,10.7,1.6,30.33,SW,218,7.0,7.0,66,0.00,,,0.00,0,Wunderground v.1.15,2013-02-13 08:57:00,
2013-02-13 02:02:00,10.7,1.6,30.34,SW,218,6.0,6.0,66,0.00,,,0.00,0,Wunderground v.1.15,2013-02-13 09:02:00,
2013-02-13 02:07:00,10.4,1.3,30.34,SW,218,1.0,6.0,66,0.00,,,0.00,0,Wunderground v.1.15,2013-02-13 09:07:00,
2013-02-13 02:12:00,10.0,0.9,30.34,SW,218,0.0,4.0,66,0.00,,,0.00,0,Wunderground v.1.15,2013-02-13 09:12:00,
2013-02-13 02:17:00,9.9,1.1,30.34,SW,218,0.0,4.0,67,0.00,,,0.00,0,Wunderground v.1.15,2013-02-13 09:17:00,
2013-02-13 02:22:00,9.7,0.9,30.34,SW,218,3.0,3.0,67,0.00,,,0.00,0,Wunderground v.1.15,2013-02-13 09:22:00,
2013-02-13 02:27:00,9.3,0.5,30.34,SW,218,5.0,6.0,67,0.00,,,0.00,0,Wunderground v.1.15,2013-02-13 09:27:00,
2013-02-13 02:33:00,9.2,0.5,30.34,SW,218,0.0,4.0,67,0.00,,,0.00,0,Wunderground v.1.15,2013-02-13 09:33:00,
2013-02-13 02:38:00,9.0,0.6,30.34,SW,218,0.0,4.0,68,0.00,,,0.00,0,Wunderground v.1.15,2013-02-13 09:38:00,
2013-02-13 02:43:00,8.8,0.4,30.34,SW,218,4.0,5.0,68,0.00,,,0.00,0,Wunderground v.1.15,2013-02-13 09:43:00,
2013-02-13 02:48:00,8.6,0.2,30.34,SW,218,5.0,7.0,68,0.00,,,0.00,0,Wunderground v.1.15,2013-02-13 09:48:00,
2013-02-13 02:53:00,8.4,0.3,30.34,SW,218,6.0,8.0,69,0.00,,,0.00,0,Wunderground v.1.15,2013-02-13 09:53:00,
2013-02-13 02:58:00,8.3,0.2,30.34,SW,218,6.0,8.0,69,0.00,,,0.00,0,Wunderground v.1.15,2013-02-13 09:58:00,
2013-02-13 03:04:00,8.3,0.2,30.34,SW,218,4.0,7.0,69,0.00,,,0.00,0,Wunderground v.1.15,2013-02-13 10:04:00,
2013-02-13 03:09:00,8.1,0.3,30.34,SW,218,5.0,7.0,70,0.00,,,0.00,0,Wunderground v.1.15,2013-02-13 10:09:00,
2013-02-13 03:14:00,8.1,0.3,30.34,SW,218,6.0,8.0,70,0.00,,,0.00,0,Wunderground v.1.15,2013-02-13 10:14:00,
2013-02-13 03:19:00,8.1,0.3,30.33,SW,218,4.0,8.0,70,0.00,,,0.00,0,Wunderground v.1.15,2013-02-13 10:19:00,
2013-02-13 03:24:00,7.9,0.1,30.33,SW,218,8.0,8.0,70,0.00,,,0.00,0,Wunderground v.1.15,2013-02-13 10:24:00,
2013-02-13 03:29:00,7.9,0.1,30.33,SW,218,6.0,9.0,70,0.00,,,0.00,0,Wunderground v.1.15,2013-02-13 10:29:00,
2013-02-13 03:34:00,7.9,0.4,30.33,SW,218,5.0,7.0,71,0.00,,,0.00,0,Wunderground v.1.15,2013-02-13 10:34:00,
2013-02-13 03:39:00,8.1,0.6,30.33,SW,218,8.0,8.0,71,0.00,,,0.00,0,Wunderground v.1.15,2013-02-13 10:39:00,
2013-02-13 03:44:00,8.3,0.5,30.33,SW,218,5.0,6.0,70,0.00,,,0.00,0,Wunderground v.1.15,2013-02-13 10:44:00,
2013-02-13 03:49:00,8.3,0.5,30.32,SW,218,7.0,8.0,70,0.00,,,0.00,0,Wunderground v.1.15,2013-02-13 10:49:00,
2013-02-13 03:54:00,8.4,0.3,30.32,SW,218,9.0,9.0,69,0.00,,,0.00,0,Wunderground v.1.15,2013-02-13 10:54:00,
2013-02-13 03:59:00,8.6,0.5,30.33,SW,218,8.0,9.0,69,0.00,,,0.00,0,Wunderground v.1.15,2013-02-13 10:59:00,
2013-02-13 04:04:00,8.8,0.7,30.33,SW,218,8.0,12.0,69,0.00,,,0.00,0,Wunderground v.1.15,2013-02-13 11:04:00,
2013-02-13 04:09:00,8.8,0.4,30.33,SW,218,10.0,12.0,68,0.00,,,0.00,0,Wunderground v.1.15,2013-02-13 11:09:00,
2013-02-13 04:17:00,9.0,0.3,30.32,SW,218,4.0,7.0,67,0.00,,,0.00,0,Wunderground v.1.15,2013-02-13 11:17:00,
2013-02-13 04:22:00,9.0,0.3,30.32,SW,218,5.0,7.0,67,0.00,,,0.00,0,Wunderground v.1.15,2013-02-13 11:22:00,
2013-02-13 04:27:00,9.0,-0.1,30.32,SW,218,6.0,6.0,66,0.00,,,0.00,0,Wunderground v.1.15,2013-02-13 11:27:00,
2013-02-13 04:32:00,8.8,-0.3,30.31,SW,218,8.0,9.0,66,0.00,,,0.00,0,Wunderground v.1.15,2013-02-13 11:32:00,
2013-02-13 04:37:00,8.6,-0.4,30.31,SW,218,10.0,11.0,66,0.00,,,0.00,0,Wunderground v.1.15,2013-02-13 11:37:00,
2013-02-13 04:44:00,8.4,-0.3,30.31,SW,218,10.0,11.0,67,0.00,,,0.00,0,Wunderground v.1.15,2013-02-13 11:44:00,
2013-02-13 04:49:00,8.3,-0.1,30.30,SW,218,5.0,10.0,68,0.00,,,0.00,0,Wunderground v.1.15,2013-02-13 11:49:00,
2013-02-13 04:54:00,8.3,-0.1,30.30,SW,218,4.0,10.0,68,0.00,,,0.00,0,Wunderground v.1.15,2013-02-13 11:54:00,
2013-02-13 04:59:00,8.1,-0.6,30.30,SW,218,0.0,5.0,67,0.00,,,0.00,0,Wunderground v.1.15,2013-02-13 11:59:00,
2013-02-13 05:04:00,7.9,-0.8,30.32,SW,218,0.0,3.0,67,0.00,,,0.00,0,Wunderground v.1.15,2013-02-13 12:04:00,
2013-02-13 05:09:00,7.6,-1.1,30.32,SW,218,0.0,3.0,67,0.00,,,0.00,0,Wunderground v.1.15,2013-02-13 12:09:00,
2013-02-13 05:14:00,7.2,-1.5,30.32,SW,218,0.0,0.0,67,0.00,,,0.00,0,Wunderground v.1.15,2013-02-13 12:14:00,
2013-02-13 05:19:00,7.0,-1.7,30.32,SW,218,0.0,0.0,67,0.00,,,0.00,0,Wunderground v.1.15,2013-02-13 12:19:00,
2013-02-13 05:24:00,6.7,-1.9,30.32,SW,218,0.0,0.0,67,0.00,,,0.00,0,Wunderground v.1.15,2013-02-13 12:24:00,
2013-02-13 05:29:00,6.3,-2.3,30.32,SW,218,0.0,0.0,67,0.00,,,0.00,0,Wunderground v.1.15,2013-02-13 12:29:00,
2013-02-13 05:34:00,6.0,-2.3,30.32,SW,218,0.0,0.0,68,0.00,,,0.00,0,Wunderground v.1.15,2013-02-13 12:34:00,
2013-02-13 05:39:00,5.6,-2.7,30.32,SW,218,9.0,10.0,68,0.00,,,0.00,0,Wunderground v.1.15,2013-02-13 12:39:00,
2013-02-13 05:44:00,5.0,-3.0,30.32,SW,218,6.0,9.0,69,0.00,,,0.00,0,Wunderground v.1.15,2013-02-13 12:44:00,
2013-02-13 05:49:00,4.8,-2.8,30.32,SW,218,7.0,9.0,70,0.00,,,0.00,0,Wunderground v.1.15,2013-02-13 12:49:00,
2013-02-13 05:54:00,4.7,-2.6,30.32,SW,218,7.0,9.0,71,0.00,,,0.00,0,Wunderground v.1.15,2013-02-13 12:54:00,
2013-02-13 05:59:00,4.5,-2.8,30.32,SW,218,7.0,9.0,71,0.00,,,0.00,0,Wunderground v.1.15,2013-02-13 12:59:00,
2013-02-13 06:04:00,4.5,-2.8,30.32,SW,218,4.0,7.0,71,0.00,,,0.00,0,Wunderground v.1.15,2013-02-13 13:04:00,
2013-02-13 06:09:00,4.3,-3.0,30.32,SW,218,4.0,7.0,71,0.00,,,0.00,0,Wunderground v.1.15,2013-02-13 13:09:00,
2013-02-13 06:14:00,4.3,-3.0,30.32,SW,218,4.0,5.0,71,0.00,,,0.00,0,Wunderground v.1.15,2013-02-13 13:14:00,
2013-02-13 06:19:00,4.1,-3.2,30.32,SW,218,3.0,5.0,71,0.00,,,0.00,0,Wunderground v.1.15,2013-02-13 13:19:00,
2013-02-13 06:24:00,3.9,-3.4,30.32,SW,218,4.0,4.0,71,0.00,,,0.00,0,Wunderground v.1.15,2013-02-13 13:24:00,
2013-02-13 06:29:00,3.9,-3.1,30.32,SW,218,4.0,4.0,72,0.00,,,0.00,0,Wunderground v.1.15,2013-02-13 13:29:00,
2013-02-13 06:34:00,3.9,-3.1,30.32,SW,218,3.0,4.0,72,0.00,,,0.00,0,Wunderground v.1.15,2013-02-13 13:34:00,
2013-02-13 06:39:00,3.9,-3.1,30.32,SW,218,3.0,4.0,72,0.00,,,0.00,0,Wunderground v.1.15,2013-02-13 13:39:00,
2013-02-13 06:44:00,3.7,-3.3,30.32,SW,218,4.0,4.0,72,0.00,,,0.00,0,Wunderground v.1.15,2013-02-13 13:44:00,
2013-02-13 06:49:00,3.7,-3.3,30.33,SW,218,4.0,4.0,72,0.00,,,0.00,0,Wunderground v.1.15,2013-02-13 13:49:00,
2013-02-13 06:54:00,3.5,-3.5,30.33,SW,218,3.0,4.0,72,0.00,,,0.00,5,Wunderground v.1.15,2013-02-13 13:54:00,
2013-02-13 06:59:00,3.5,-3.5,30.33,SW,218,4.0,4.0,72,0.00,,,0.00,7,Wunderground v.1.15,2013-02-13 13:59:00,
2013-02-13 07:04:00,3.4,-3.3,30.32,SW,218,6.0,6.0,73,0.00,,,0.00,9,Wunderground v.1.15,2013-02-13 14:04:00,
2013-02-13 07:09:00,3.4,-3.3,30.32,SW,218,6.0,7.0,73,0.00,,,0.00,25,Wunderground v.1.15,2013-02-13 14:09:00,
2013-02-13 07:14:00,3.4,-3.0,30.32,SW,218,4.0,6.0,74,0.00,,,0.00,35,Wunderground v.1.15,2013-02-13 14:14:00,
2013-02-13 07:20:00,3.5,-2.7,30.32,SW,218,4.0,5.0,75,0.00,,,0.00,53,Wunderground v.1.15,2013-02-13 14:20:00,
2013-02-13 07:25:00,3.9,-2.3,30.32,SW,218,5.0,5.0,75,0.00,,,0.00,69,Wunderground v.1.15,2013-02-13 14:25:00,
2013-02-13 07:30:00,4.5,-1.7,30.33,SW,218,4.0,5.0,75,0.00,,,0.00,84,Wunderground v.1.15,2013-02-13 14:30:00,
2013-02-13 07:36:00,5.4,-0.5,30.33,SW,218,5.0,5.0,76,0.00,,,0.00,111,Wunderground v.1.15,2013-02-13 14:36:00,
2013-02-13 07:41:00,6.0,0.1,30.33,SW,218,3.0,5.0,76,0.00,,,0.00,130,Wunderground v.1.15,2013-02-13 14:41:00,
2013-02-13 07:46:00,6.7,0.7,30.33,SW,218,3.0,5.0,76,0.00,,,0.00,149,Wunderground v.1.15,2013-02-13 14:46:00,
2013-02-13 07:51:00,7.6,1.3,30.33,SW,218,3.0,4.0,75,0.00,,,0.00,169,Wunderground v.1.15,2013-02-13 14:51:00,
2013-02-13 07:57:00,8.3,2.0,30.33,SW,218,2.0,5.0,75,0.00,,,0.00,183,Wunderground v.1.15,2013-02-13 14:57:00,
2013-02-13 08:02:00,9.2,2.6,30.34,SW,218,1.0,3.0,74,0.00,,,0.00,199,Wunderground v.1.15,2013-02-13 15:02:00,
2013-02-13 08:07:00,10.0,3.1,30.34,SW,218,0.0,3.0,73,0.00,,,0.00,214,Wunderground v.1.15,2013-02-13 15:07:00,
2013-02-13 08:12:00,10.9,3.6,30.34,SW,218,0.0,1.0,72,0.00,,,0.00,227,Wunderground v.1.15,2013-02-13 15:12:00,
2013-02-13 08:17:00,11.6,4.0,30.34,SW,218,0.0,1.0,71,0.00,,,0.00,244,Wunderground v.1.15,2013-02-13 15:17:00,
2013-02-13 08:22:00,12.3,4.1,30.34,SW,218,0.0,0.0,69,0.00,,,0.00,260,Wunderground v.1.15,2013-02-13 15:22:00,
2013-02-13 08:27:00,12.8,4.2,30.34,SW,218,0.0,0.0,68,0.00,,,0.00,276,Wunderground v.1.15,2013-02-13 15:27:00,
2013-02-13 08:33:00,13.6,4.7,30.34,SW,218,0.0,0.0,67,0.00,,,0.00,297,Wunderground v.1.15,2013-02-13 15:33:00,
2013-02-13 08:38:00,14.4,5.1,30.34,SW,218,0.0,0.0,66,0.00,,,0.00,308,Wunderground v.1.15,2013-02-13 15:38:00,
2013-02-13 08:43:00,15.6,5.9,30.34,SW,218,7.0,11.0,65,0.00,,,0.00,320,Wunderground v.1.15,2013-02-13 15:43:00,
2013-02-13 08:48:00,16.5,6.1,30.33,SW,218,9.0,11.0,63,0.00,,,0.00,329,Wunderground v.1.15,2013-02-13 15:48:00,
2013-02-13 08:53:00,17.3,6.1,30.33,SW,218,7.0,11.0,61,0.00,,,0.00,341,Wunderground v.1.15,2013-02-13 15:53:00,
2013-02-13 08:58:00,18.1,6.2,30.33,SW,218,7.0,11.0,59,0.00,,,0.00,352,Wunderground v.1.15,2013-02-13 15:58:00,
2013-02-13 09:03:00,18.9,6.2,30.34,SW,218,7.0,10.0,57,0.00,,,0.00,371,Wunderground v.1.15,2013-02-13 16:03:00,
2013-02-13 09:08:00,19.5,6.3,30.34,SW,218,5.0,10.0,56,0.00,,,0.00,385,Wunderground v.1.15,2013-02-13 16:08:00,
2013-02-13 09:13:00,20.2,6.6,30.34,SW,218,9.0,9.0,55,0.00,,,0.00,403,Wunderground v.1.15,2013-02-13 16:13:00,
2013-02-13 09:18:00,20.8,6.7,30.33,SW,218,5.0,9.0,54,0.00,,,0.00,418,Wunderground v.1.15,2013-02-13 16:18:00,
2013-02-13 09:24:00,21.4,6.5,30.33,SW,218,0.0,6.0,52,0.00,,,0.00,434,Wunderground v.1.15,2013-02-13 16:24:00,
2013-02-13 09:29:00,21.9,6.5,30.33,SW,218,0.0,6.0,51,0.00,,,0.00,448,Wunderground v.1.15,2013-02-13 16:29:00,
2013-02-13 09:34:00,22.5,6.6,30.33,SW,218,0.0,7.0,50,0.00,,,0.00,343,Wunderground v.1.15,2013-02-13 16:34:00,
2013-02-13 09:39:00,22.9,7.0,30.33,SW,218,0.0,7.0,50,0.00,,,0.00,455,Wunderground v.1.15,2013-02-13 16:39:00,
2013-02-13 09:44:00,23.5,6.7,30.33,SW,218,0.0,1.0,48,0.00,,,0.00,489,Wunderground v.1.15,2013-02-13 16:44:00,
2013-02-13 09:49:00,23.9,6.6,30.33,SW,218,0.0,1.0,47,0.00,,,0.00,497,Wunderground v.1.15,2013-02-13 16:49:00,
2013-02-13 09:56:00,24.4,6.6,30.33,SW,218,0.0,0.0,46,0.00,,,0.00,512,Wunderground v.1.15,2013-02-13 16:56:00,
2013-02-13 10:01:00,24.8,6.4,30.33,SW,218,0.0,0.0,45,0.00,,,0.00,519,Wunderground v.1.15,2013-02-13 17:01:00,
2013-02-13 10:09:00,25.6,7.2,30.33,SW,218,7.0,7.0,45,0.00,,,0.00,536,Wunderground v.1.15,2013-02-13 17:09:00,
2013-02-13 10:16:00,26.3,6.8,30.33,SW,218,5.0,9.0,43,0.00,,,0.00,561,Wunderground v.1.15,2013-02-13 17:16:00,
2013-02-13 10:21:00,26.7,7.2,30.33,SW,218,6.0,7.0,43,0.00,,,0.00,578,Wunderground v.1.15,2013-02-13 17:21:00,
2013-02-13 10:27:00,27.5,7.4,30.33,SW,218,8.0,10.0,42,0.00,,,0.00,589,Wunderground v.1.15,2013-02-13 17:27:00,
2013-02-13 10:32:00,27.8,7.1,30.33,SW,218,10.0,11.0,41,0.00,,,0.00,624,Wunderground v.1.15,2013-02-13 17:32:00,
2013-02-13 10:37:00,28.1,6.8,30.33,SW,216,10.0,11.0,40,0.00,,,0.00,698,Wunderground v.1.15,2013-02-13 17:37:00,
2013-02-13 10:46:00,28.4,6.6,30.32,SSW,211,11.0,13.0,39,0.00,,,0.00,441,Wunderground v.1.15,2013-02-13 17:46:00,
2013-02-13 10:51:00,28.1,6.8,30.32,SSW,209,8.0,11.0,40,0.00,,,0.00,471,Wunderground v.1.15,2013-02-13 17:51:00,
2013-02-13 10:56:00,28.4,8.2,30.32,SSW,200,8.0,11.0,42,0.00,,,0.00,691,Wunderground v.1.15,2013-02-13 17:56:00,
2013-02-13 11:01:00,29.0,9.3,30.31,South,183,10.0,14.0,43,0.00,,,0.00,691,Wunderground v.1.15,2013-02-13 18:01:00,
2013-02-13 11:07:00,29.4,8.0,30.31,South,182,9.0,14.0,40,0.00,,,0.00,701,Wunderground v.1.15,2013-02-13 18:07:00,
2013-02-13 11:12:00,29.7,8.3,30.31,South,182,4.0,8.0,40,0.00,,,0.00,700,Wunderground v.1.15,2013-02-13 18:12:00,
2013-02-13 11:17:00,30.0,8.6,30.32,South,182,7.0,8.0,40,0.00,,,0.00,696,Wunderground v.1.15,2013-02-13 18:17:00,
2013-02-13 11:22:00,30.4,8.9,30.32,South,182,0.0,10.0,40,0.00,,,0.00,714,Wunderground v.1.15,2013-02-13 18:22:00,
2013-02-13 11:27:00,30.9,8.2,30.32,South,180,6.0,10.0,38,0.00,,,0.00,728,Wunderground v.1.15,2013-02-13 18:27:00,
2013-02-13 11:32:00,31.2,7.9,30.30,South,181,0.0,9.0,37,0.00,,,0.00,552,Wunderground v.1.15,2013-02-13 18:32:00,
2013-02-13 11:37:00,31.2,7.3,30.30,South,180,0.0,9.0,36,0.00,,,0.00,682,Wunderground v.1.15,2013-02-13 18:37:00,
2013-02-13 11:42:00,31.3,8.0,30.30,South,180,9.0,9.0,37,0.00,,,0.00,666,Wunderground v.1.15,2013-02-13 18:42:00,
2013-02-13 11:47:00,31.6,8.3,30.29,South,180,5.0,10.0,37,0.00,,,0.00,659,Wunderground v.1.15,2013-02-13 18:47:00,
2013-02-13 11:53:00,31.6,8.3,30.29,South,180,2.0,10.0,37,0.00,,,0.00,663,Wunderground v.1.15,2013-02-13 18:53:00,
2013-02-13 11:58:00,31.9,8.5,30.29,South,180,0.0,11.0,37,0.00,,,0.00,722,Wunderground v.1.15,2013-02-13 18:58:00,
2013-02-13 12:03:00,32.4,8.4,30.28,South,180,0.0,7.0,36,0.00,,,0.00,724,Wunderground v.1.15,2013-02-13 19:03:00,
2013-02-13 12:08:00,32.7,8.0,30.28,South,180,0.0,7.0,35,0.00,,,0.00,703,Wunderground v.1.15,2013-02-13 19:08:00,
2013-02-13 12:14:00,32.9,8.2,30.28,South,180,0.0,5.0,35,0.00,,,0.00,682,Wunderground v.1.15,2013-02-13 19:14:00,
2013-02-13 12:19:00,33.2,8.5,30.27,South,180,0.0,5.0,35,0.00,,,0.00,631,Wunderground v.1.15,2013-02-13 19:19:00,
2013-02-13 12:24:00,33.5,8.7,30.27,South,180,6.0,10.0,35,0.00,,,0.00,677,Wunderground v.1.15,2013-02-13 19:24:00,
2013-02-13 12:29:00,33.8,8.4,30.27,South,180,0.0,10.0,34,0.00,,,0.00,714,Wunderground v.1.15,2013-02-13 19:29:00,
2013-02-13 12:34:00,34.0,9.2,30.26,South,180,6.0,8.0,35,0.00,,,0.00,633,Wunderground v.1.15,2013-02-13 19:34:00,
2013-02-13 12:39:00,34.1,8.6,30.26,South,180,0.0,9.0,34,0.00,,,0.00,496,Wunderground v.1.15,2013-02-13 19:39:00,
2013-02-13 12:44:00,34.1,8.6,30.26,South,180,0.0,3.0,34,0.00,,,0.00,633,Wunderground v.1.15,2013-02-13 19:44:00,
2013-02-13 12:49:00,34.3,9.4,30.25,South,180,0.0,3.0,35,0.00,,,0.00,707,Wunderground v.1.15,2013-02-13 19:49:00,
2013-02-13 12:54:00,34.4,9.5,30.25,South,180,0.0,7.0,35,0.00,,,0.00,540,Wunderground v.1.15,2013-02-13 19:54:00,
2013-02-13 12:59:00,34.6,10.3,30.24,South,180,3.0,7.0,36,0.00,,,0.00,666,Wunderground v.1.15,2013-02-13 19:59:00,
2013-02-13 13:04:00,34.7,9.1,30.24,South,180,0.0,2.0,34,0.00,,,0.00,455,Wunderground v.1.15,2013-02-13 20:04:00,
2013-02-13 13:10:00,34.7,9.8,30.24,South,180,0.0,0.0,35,0.00,,,0.00,715,Wunderground v.1.15,2013-02-13 20:10:00,
2013-02-13 13:15:00,34.9,9.3,30.23,South,180,1.0,2.0,34,0.00,,,0.00,700,Wunderground v.1.15,2013-02-13 20:15:00,
2013-02-13 13:20:00,34.9,9.3,30.23,South,180,0.0,0.0,34,0.00,,,0.00,346,Wunderground v.1.15,2013-02-13 20:20:00,
2013-02-13 13:25:00,35.0,10.1,30.23,South,180,0.0,7.0,35,0.00,,,0.00,635,Wunderground v.1.15,2013-02-13 20:25:00,
2013-02-13 13:30:00,35.0,9.4,30.23,South,180,0.0,1.0,34,0.00,,,0.00,657,Wunderground v.1.15,2013-02-13 20:30:00,
2013-02-13 13:36:00,35.3,9.7,30.23,South,180,0.0,1.0,34,0.00,,,0.00,696,Wunderground v.1.15,2013-02-13 20:36:00,
2013-02-13 13:41:00,35.6,9.9,30.23,South,180,0.0,9.0,34,0.00,,,0.00,707,Wunderground v.1.15,2013-02-13 20:41:00,
2013-02-13 13:46:00,35.9,10.9,30.21,South,180,2.0,9.0,35,0.00,,,0.00,687,Wunderground v.1.15,2013-02-13 20:46:00,
2013-02-13 13:51:00,35.9,10.9,30.21,South,180,5.0,7.0,35,0.00,,,0.00,686,Wunderground v.1.15,2013-02-13 20:51:00,
2013-02-13 13:56:00,35.3,11.0,30.21,South,180,0.0,7.0,36,0.00,,,0.00,673,Wunderground v.1.15,2013-02-13 20:56:00,
2013-02-13 14:01:00,35.5,10.5,30.21,South,180,0.0,5.0,35,0.00,,,0.00,664,Wunderground v.1.15,2013-02-13 21:01:00,
2013-02-13 14:06:00,35.8,10.8,30.21,South,180,0.0,5.0,35,0.00,,,0.00,638,Wunderground v.1.15,2013-02-13 21:06:00,
2013-02-13 14:11:00,36.2,11.1,30.21,South,180,1.0,3.0,35,0.00,,,0.00,635,Wunderground v.1.15,2013-02-13 21:11:00,
2013-02-13 14:16:00,36.5,11.4,30.21,South,180,0.0,5.0,35,0.00,,,0.00,624,Wunderground v.1.15,2013-02-13 21:16:00,
2013-02-13 14:23:00,37.0,11.2,30.21,South,180,0.0,1.0,34,0.00,,,0.00,613,Wunderground v.1.15,2013-02-13 21:23:00,
2013-02-13 14:28:00,37.3,10.8,30.21,South,180,0.0,1.0,33,0.00,,,0.00,608,Wunderground v.1.15,2013-02-13 21:28:00,
2013-02-13 14:34:00,37.6,11.0,30.21,South,180,0.0,0.0,33,0.00,,,0.00,606,Wunderground v.1.15,2013-02-13 21:34:00,
2013-02-13 14:39:00,37.9,12.0,30.21,South,180,0.0,0.0,34,0.00,,,0.00,605,Wunderground v.1.15,2013-02-13 21:39:00,
2013-02-13 14:44:00,38.2,11.6,30.21,South,180,0.0,0.0,33,0.00,,,0.00,591,Wunderground v.1.15,2013-02-13 21:44:00,
2013-02-13 14:49:00,38.3,11.0,30.20,South,180,0.0,0.0,32,0.00,,,0.00,577,Wunderground v.1.15,2013-02-13 21:49:00,
2013-02-13 14:54:00,38.5,11.1,30.20,South,180,0.0,0.0,32,0.00,,,0.00,550,Wunderground v.1.15,2013-02-13 21:54:00,
2013-02-13 14:59:00,38.6,11.2,30.20,South,180,0.0,0.0,32,0.00,,,0.00,531,Wunderground v.1.15,2013-02-13 21:59:00,
2013-02-13 15:04:00,38.8,12.1,30.20,South,180,7.0,8.0,33,0.00,,,0.00,508,Wunderground v.1.15,2013-02-13 22:04:00,
2013-02-13 15:09:00,38.6,11.9,30.20,South,180,7.0,12.0,33,0.00,,,0.00,497,Wunderground v.1.15,2013-02-13 22:09:00,
2013-02-13 15:14:00,38.3,11.7,30.20,South,180,10.0,12.0,33,0.00,,,0.00,480,Wunderground v.1.15,2013-02-13 22:14:00,
2013-02-13 15:19:00,38.0,12.1,30.20,South,182,6.0,12.0,34,0.00,,,0.00,464,Wunderground v.1.15,2013-02-13 22:19:00,
2013-02-13 15:24:00,37.6,11.7,30.20,South,182,8.0,13.0,34,0.00,,,0.00,450,Wunderground v.1.15,2013-02-13 22:24:00,
2013-02-13 15:29:00,37.3,12.1,30.20,South,182,8.0,13.0,35,0.00,,,0.00,439,Wunderground v.1.15,2013-02-13 22:29:00,
2013-02-13 15:34:00,37.2,12.0,30.21,South,183,8.0,10.0,35,0.00,,,0.00,424,Wunderground v.1.15,2013-02-13 22:34:00,
2013-02-13 15:39:00,37.0,11.8,30.21,South,184,7.0,12.0,35,0.00,,,0.00,408,Wunderground v.1.15,2013-02-13 22:39:00,
2013-02-13 15:44:00,36.8,11.7,30.21,South,184,10.0,12.0,35,0.00,,,0.00,396,Wunderground v.1.15,2013-02-13 22:44:00,
2013-02-13 15:49:00,36.6,11.5,30.21,South,184,10.0,12.0,35,0.00,,,0.00,380,Wunderground v.1.15,2013-02-13 22:49:00,
2013-02-13 15:54:00,36.5,12.0,30.21,South,184,7.0,12.0,36,0.00,,,0.00,367,Wunderground v.1.15,2013-02-13 22:54:00,
2013-02-13 15:59:00,36.2,11.8,30.21,South,184,9.0,12.0,36,0.00,,,0.00,350,Wunderground v.1.15,2013-02-13 22:59:00,
2013-02-13 16:04:00,36.0,11.6,30.21,South,187,7.0,12.0,36,0.00,,,0.00,336,Wunderground v.1.15,2013-02-13 23:04:00,
2013-02-13 16:09:00,35.9,11.5,30.21,South,188,6.0,12.0,36,0.00,,,0.00,320,Wunderground v.1.15,2013-02-13 23:09:00,
2013-02-13 16:14:00,35.8,11.4,30.21,South,188,9.0,12.0,36,0.00,,,0.00,306,Wunderground v.1.15,2013-02-13 23:14:00,
2013-02-13 16:19:00,35.6,11.9,30.20,South,189,9.0,12.0,37,0.00,,,0.00,290,Wunderground v.1.15,2013-02-13 23:19:00,
2013-02-13 16:24:00,35.5,11.1,30.20,South,189,9.0,12.0,36,0.00,,,0.00,274,Wunderground v.1.15,2013-02-13 23:24:00,
2013-02-13 16:29:00,35.2,11.5,30.20,SSW,192,12.0,12.0,37,0.00,,,0.00,258,Wunderground v.1.15,2013-02-13 23:29:00,
2013-02-13 16:34:00,34.9,11.8,30.21,SSW,194,9.0,11.0,38,0.00,,,0.00,239,Wunderground v.1.15,2013-02-13 23:34:00,
2013-02-13 16:40:00,34.7,12.2,30.21,SSW,194,9.0,9.0,39,0.00,,,0.00,216,Wunderground v.1.15,2013-02-13 23:40:00,
2013-02-13 16:45:00,34.6,12.1,30.21,SSW,200,10.0,12.0,39,0.00,,,0.00,181,Wunderground v.1.15,2013-02-13 23:45:00,
2013-02-13 16:50:00,34.3,11.9,30.21,SSW,201,12.0,12.0,39,0.00,,,0.00,183,Wunderground v.1.15,2013-02-13 23:50:00,
2013-02-13 16:55:00,33.8,12.0,30.21,SSW,202,11.0,12.0,40,0.00,,,0.00,160,Wunderground v.1.15,2013-02-13 23:55:00,
2013-02-13 17:00:00,33.5,11.7,30.21,SSW,202,7.0,10.0,40,0.00,,,0.00,93,Wunderground v.1.15,2013-02-14 00:00:00,
2013-02-13 17:05:00,33.2,10.9,30.21,SSW,202,7.0,10.0,39,0.00,,,0.00,120,Wunderground v.1.15,2013-02-14 00:05:00,
2013-02-13 17:10:00,33.1,11.4,30.21,SSW,202,8.0,8.0,40,0.00,,,0.00,97,Wunderground v.1.15,2013-02-14 00:10:00,
2013-02-13 17:16:00,32.7,11.6,30.21,SSW,202,8.0,11.0,41,0.00,,,0.00,53,Wunderground v.1.15,2013-02-14 00:16:00,
2013-02-13 17:21:00,32.4,11.8,30.21,SSW,202,8.0,9.0,42,0.00,,,0.00,33,Wunderground v.1.15,2013-02-14 00:21:00,
2013-02-13 17:26:00,32.1,11.6,30.21,SSW,202,6.0,9.0,42,0.00,,,0.00,26,Wunderground v.1.15,2013-02-14 00:26:00,
2013-02-13 17:31:00,31.6,12.2,30.22,SSW,202,3.0,6.0,44,0.00,,,0.00,23,Wunderground v.1.15,2013-02-14 00:31:00,
2013-02-13 17:36:00,31.3,12.4,30.22,SSW,202,0.0,6.0,45,0.00,,,0.00,11,Wunderground v.1.15,2013-02-14 00:36:00,
2013-02-13 17:41:00,30.9,12.5,30.22,SSW,202,0.0,1.0,46,0.00,,,0.00,7,Wunderground v.1.15,2013-02-14 00:41:00,
2013-02-13 17:46:00,30.1,12.7,30.23,SSW,202,0.0,1.0,48,0.00,,,0.00,0,Wunderground v.1.15,2013-02-14 00:46:00,
2013-02-13 17:51:00,29.3,13.8,30.23,SSW,202,0.0,0.0,52,0.00,,,0.00,0,Wunderground v.1.15,2013-02-14 00:51:00,
2013-02-13 17:57:00,28.7,13.3,30.23,SSW,202,0.0,0.0,52,0.00,,,0.00,0,Wunderground v.1.15,2013-02-14 00:57:00,
2013-02-13 18:02:00,28.4,13.0,30.23,SSW,202,0.0,0.0,52,0.00,,,0.00,0,Wunderground v.1.15,2013-02-14 01:02:00,
2013-02-13 18:07:00,28.1,12.7,30.23,SSW,202,0.0,0.0,52,0.00,,,0.00,0,Wunderground v.1.15,2013-02-14 01:07:00,
2013-02-13 18:13:00,27.8,13.3,30.23,SSW,202,0.0,0.0,54,0.00,,,0.00,0,Wunderground v.1.15,2013-02-14 01:13:00,
2013-02-13 18:18:00,27.3,11.5,30.23,SSW,202,0.0,0.0,51,0.00,,,0.00,0,Wunderground v.1.15,2013-02-14 01:18:00,
2013-02-13 18:24:00,27.0,11.3,30.23,SSW,202,0.0,0.0,51,0.00,,,0.00,0,Wunderground v.1.15,2013-02-14 01:24:00,
2013-02-13 18:29:00,27.0,11.7,30.23,SSW,202,0.0,0.0,52,0.00,,,0.00,0,Wunderground v.1.15,2013-02-14 01:29:00,
2013-02-13 18:34:00,27.0,12.1,30.24,SSW,202,0.0,0.0,53,0.00,,,0.00,0,Wunderground v.1.15,2013-02-14 01:34:00,
2013-02-13 18:39:00,26.9,12.0,30.24,SSW,202,0.0,0.0,53,0.00,,,0.00,0,Wunderground v.1.15,2013-02-14 01:39:00,
2013-02-13 18:44:00,26.7,11.8,30.24,SSW,202,0.0,0.0,53,0.00,,,0.00,0,Wunderground v.1.15,2013-02-14 01:44:00,
2013-02-13 18:49:00,26.6,11.7,30.24,SSW,202,0.0,0.0,53,0.00,,,0.00,0,Wunderground v.1.15,2013-02-14 01:49:00,
2013-02-13 18:54:00,26.4,11.6,30.24,SSW,202,0.0,0.0,53,0.00,,,0.00,0,Wunderground v.1.15,2013-02-14 01:54:00,
2013-02-13 18:59:00,26.3,11.5,30.24,SSW,202,0.0,0.0,53,0.00,,,0.00,0,Wunderground v.1.15,2013-02-14 01:59:00,
2013-02-13 19:04:00,26.1,11.7,30.25,SSW,202,0.0,0.0,54,0.00,,,0.00,0,Wunderground v.1.15,2013-02-14 02:04:00,
2013-02-13 19:09:00,26.1,11.7,30.25,SSW,202,0.0,0.0,54,0.00,,,0.00,0,Wunderground v.1.15,2013-02-14 02:09:00,
2013-02-13 19:14:00,26.1,12.1,30.25,SSW,202,10.0,11.0,55,0.00,,,0.00,0,Wunderground v.1.15,2013-02-14 02:14:00,
2013-02-13 19:19:00,26.0,11.6,30.24,SSW,211,10.0,11.0,54,0.00,,,0.00,0,Wunderground v.1.15,2013-02-14 02:19:00,
2013-02-13 19:24:00,26.0,11.6,30.24,SSW,212,8.0,11.0,54,0.00,,,0.00,0,Wunderground v.1.15,2013-02-14 02:24:00,
2013-02-13 19:29:00,25.7,12.2,30.24,SSW,212,0.0,11.0,56,0.00,,,0.00,0,Wunderground v.1.15,2013-02-14 02:29:00,
2013-02-13 19:34:00,25.6,12.5,30.25,SSW,212,7.0,9.0,57,0.00,,,0.00,0,Wunderground v.1.15,2013-02-14 02:34:00,
2013-02-13 19:39:00,25.3,12.6,30.25,SSW,212,5.0,9.0,58,0.00,,,0.00,0,Wunderground v.1.15,2013-02-14 02:39:00,
2013-02-13 19:44:00,25.0,12.3,30.25,SSW,212,0.0,6.0,58,0.00,,,0.00,0,Wunderground v.1.15,2013-02-14 02:44:00,
2013-02-13 19:49:00,25.0,12.3,30.25,SSW,212,7.0,7.0,58,0.00,,,0.00,0,Wunderground v.1.15,2013-02-14 02:49:00,
2013-02-13 19:54:00,25.0,12.3,30.25,SSW,213,10.0,10.0,58,0.00,,,0.00,0,Wunderground v.1.15,2013-02-14 02:54:00,
2013-02-13 19:59:00,25.1,12.4,30.25,SW,232,11.0,12.0,58,0.00,,,0.00,0,Wunderground v.1.15,2013-02-14 02:59:00,
2013-02-13 20:04:00,25.1,12.4,30.25,WSW,240,6.0,12.0,58,0.00,,,0.00,0,Wunderground v.1.15,2013-02-14 03:04:00,
2013-02-13 20:09:00,25.1,12.8,30.25,WSW,240,1.0,12.0,59,0.00,,,0.00,0,Wunderground v.1.15,2013-02-14 03:09:00,
2013-02-13 20:14:00,25.1,12.4,30.25,WSW,240,0.0,6.0,58,0.00,,,0.00,0,Wunderground v.1.15,2013-02-14 03:14:00,
2013-02-13 20:19:00,25.1,12.4,30.25,WSW,240,0.0,6.0,58,0.00,,,0.00,0,Wunderground v.1.15,2013-02-14 03:19:00,
2013-02-13 20:26:00,24.8,12.5,30.25,WSW,240,0.0,0.0,59,0.00,,,0.00,0,Wunderground v.1.15,2013-02-14 03:26:00,
2013-02-13 20:31:00,24.7,12.4,30.25,WSW,244,12.0,12.0,59,0.00,,,0.00,0,Wunderground v.1.15,2013-02-14 03:31:00,
2013-02-13 20:36:00,24.7,12.4,30.25,West,279,14.0,14.0,59,0.00,,,0.00,0,Wunderground v.1.15,2013-02-14 03:36:00,
2013-02-13 20:41:00,24.7,12.4,30.25,WNW,295,11.0,13.0,59,0.00,,,0.00,0,Wunderground v.1.15,2013-02-14 03:41:00,
2013-02-13 20:46:00,24.7,12.0,30.23,WNW,295,7.0,13.0,58,0.00,,,0.00,0,Wunderground v.1.15,2013-02-14 03:46:00,
2013-02-13 20:51:00,24.5,11.8,30.23,WNW,295,0.0,9.0,58,0.00,,,0.00,0,Wunderground v.1.15,2013-02-14 03:51:00,
2013-02-13 20:56:00,24.4,12.1,30.23,WNW,295,0.0,9.0,59,0.00,,,0.00,0,Wunderground v.1.15,2013-02-14 03:56:00,
2013-02-13 21:01:00,24.2,11.5,30.24,WNW,295,0.0,0.0,58,0.00,,,0.00,0,Wunderground v.1.15,2013-02-14 04:01:00,
2013-02-13 21:06:00,23.9,11.3,30.24,WNW,295,9.0,11.0,58,0.00,,,0.00,0,Wunderground v.1.15,2013-02-14 04:06:00,
2013-02-13 21:11:00,23.5,11.3,30.24,WNW,300,11.0,13.0,59,0.00,,,0.00,0,Wunderground v.1.15,2013-02-14 04:11:00,
2013-02-13 21:16:00,23.2,11.0,30.24,NW,306,10.0,15.0,59,0.00,,,0.00,0,Wunderground v.1.15,2013-02-14 04:16:00,
2013-02-13 21:23:00,23.2,11.4,30.24,NW,309,12.0,14.0,60,0.00,,,0.00,0,Wunderground v.1.15,2013-02-14 04:23:00,
2013-02-13 21:28:00,23.2,11.4,30.24,NW,309,11.0,14.0,60,0.00,,,0.00,0,Wunderground v.1.15,2013-02-14 04:28:00,
2013-02-13 21:33:00,23.2,11.4,30.24,NW,309,6.0,12.0,60,0.00,,,0.00,0,Wunderground v.1.15,2013-02-14 04:33:00,
2013-02-13 21:38:00,23.2,11.4,30.24,NW,309,7.0,12.0,60,0.00,,,0.00,0,Wunderground v.1.15,2013-02-14 04:38:00,
2013-02-13 21:43:00,23.0,11.2,30.24,NW,309,8.0,10.0,60,0.00,,,0.00,0,Wunderground v.1.15,2013-02-14 04:43:00,
2013-02-13 21:49:00,22.9,11.1,30.24,NW,309,11.0,11.0,60,0.00,,,0.00,0,Wunderground v.1.15,2013-02-14 04:49:00,
2013-02-13 21:53:00,22.9,11.4,30.24,NW,309,10.0,12.0,61,0.00,,,0.00,0,Wunderground v.1.15,2013-02-14 04:53:00,
2013-02-13 21:59:00,22.7,11.3,30.24,NW,309,8.0,12.0,61,0.00,,,0.00,0,Wunderground v.1.15,2013-02-14 04:59:00,
2013-02-13 22:00:00,22.5,11.1,30.24,NW,309,11.0,11.0,61,0.00,,,0.00,0,Wunderground v.1.15,2013-02-14 05:00:00,
2013-02-13 22:06:00,22.4,11.3,30.24,NW,310,8.0,13.0,62,0.00,,,0.00,0,Wunderground v.1.15,2013-02-14 05:06:00,
2013-02-13 22:11:00,22.4,11.3,30.24,NW,310,3.0,9.0,62,0.00,,,0.00,0,Wunderground v.1.15,2013-02-14 05:11:00,
2013-02-13 22:16:00,22.4,11.0,30.24,NW,310,9.0,9.0,61,0.00,,,0.00,0,Wunderground v.1.15,2013-02-14 05:16:00,
2013-02-13 22:21:00,22.4,10.6,30.24,NW,309,12.0,14.0,60,0.00,,,0.00,0,Wunderground v.1.15,2013-02-14 05:21:00,
2013-02-13 22:26:00,22.5,11.1,30.24,NW,308,6.0,14.0,61,0.00,,,0.00,0,Wunderground v.1.15,2013-02-14 05:26:00,
2013-02-13 22:31:00,22.7,10.9,30.24,NW,308,6.0,8.0,60,0.00,,,0.00,0,Wunderground v.1.15,2013-02-14 05:31:00,
2013-02-13 22:36:00,22.7,10.5,30.24,NW,308,0.0,8.0,59,0.00,,,0.00,0,Wunderground v.1.15,2013-02-14 05:36:00,
2013-02-13 22:41:00,22.7,10.5,30.24,NW,308,0.0,2.0,59,0.00,,,0.00,0,Wunderground v.1.15,2013-02-14 05:41:00,
2013-02-13 22:46:00,22.5,9.9,30.24,NW,308,0.0,2.0,58,0.00,,,0.00,0,Wunderground v.1.15,2013-02-14 05:46:00,
2013-02-13 22:51:00,21.9,9.4,30.24,NW,308,0.0,0.0,58,0.00,,,0.00,0,Wunderground v.1.15,2013-02-14 05:51:00,
2013-02-13 22:56:00,21.6,9.1,30.24,NW,308,0.0,0.0,58,0.00,,,0.00,0,Wunderground v.1.15,2013-02-14 05:56:00,
2013-02-13 23:01:00,20.8,8.7,30.24,NW,308,0.0,0.0,59,0.00,,,0.00,0,Wunderground v.1.15,2013-02-14 06:01:00,
2013-02-13 23:06:00,19.7,8.4,30.24,NW,308,0.0,0.0,61,0.00,,,0.00,0,Wunderground v.1.15,2013-02-14 06:06:00,
2013-02-13 23:12:00,18.8,7.9,30.24,NW,308,6.0,7.0,62,0.00,,,0.00,0,Wunderground v.1.15,2013-02-14 06:12:00,
2013-02-13 23:17:00,18.0,7.9,30.24,NW,308,0.0,7.0,64,0.00,,,0.00,0,Wunderground v.1.15,2013-02-14 06:17:00,
2013-02-13 23:22:00,17.5,7.7,30.24,NW,308,9.0,9.0,65,0.00,,,0.00,0,Wunderground v.1.15,2013-02-14 06:22:00,
2013-02-13 23:27:00,17.0,7.3,30.24,NW,308,8.0,9.0,65,0.00,,,0.00,0,Wunderground v.1.15,2013-02-14 06:27:00,
2013-02-13 23:32:00,16.7,7.3,30.24,NW,308,5.0,7.0,66,0.00,,,0.00,0,Wunderground v.1.15,2013-02-14 06:32:00,
2013-02-13 23:37:00,16.4,7.0,30.24,NW,308,6.0,8.0,66,0.00,,,0.00,0,Wunderground v.1.15,2013-02-14 06:37:00,
2013-02-13 23:42:00,16.2,7.2,30.24,NW,308,6.0,7.0,67,0.00,,,0.00,0,Wunderground v.1.15,2013-02-14 06:42:00,
2013-02-13 23:47:00,16.1,7.1,30.24,NW,308,8.0,8.0,67,0.00,,,0.00,0,Wunderground v.1.15,2013-02-14 06:47:00,
2013-02-13 23:52:00,16.1,7.4,30.24,WNW,289,8.0,12.0,68,0.00,,,0.00,0,Wunderground v.1.15,2013-02-14 06:52:00,
2013-02-13 23:57:00,16.1,7.7,30.24,WNW,289,10.0,12.0,69,0.00,,,0.00,0,Wunderground v.1.15,2013-02-14 06:57:00,